Terminal Aerodrome Forecast
Issued by NWS Lake Charles, LA

Home | Current Version | Previous Version | Text Only | Print | Product List | Glossary On
Versions: 1 2 3 4 5 6 7 8 9 10 11 12 13 14 15 16 17 18 19
000
FTUS44 KLCH 222320
TAFLCH
TAF
KLCH 222320Z 2300/2324 16012G20KT P6SM VCSH SCT015 OVC025
     FM230300 15008KT 5SM BR OVC015
     FM230600 14006KT 3SM BR OVC008
     FM230900 13004KT 1SM BR OVC004
     FM231500 14008KT P6SM BKN015
     FM232100 15012G20KT P6SM OVC035=

USA.gov is the U.S. government's official web portal to all federal, state and local government web resources and services.